sensor_id;sensor_type;location;lat;lon;timestamp;temperature;humidity
64062;DHT22;50308;47.438;-1.528;2023-08-30T00:00:39;19.50;74.60
64062;DHT22;50308;47.438;-1.528;2023-08-30T00:03:04;19.50;74.70
64062;DHT22;50308;47.438;-1.528;2023-08-30T00:05:31;19.50;74.70
64062;DHT22;50308;47.438;-1.528;2023-08-30T00:07:57;19.50;74.70
64062;DHT22;50308;47.438;-1.528;2023-08-30T00:10:23;19.40;74.80
64062;DHT22;50308;47.438;-1.528;2023-08-30T00:12:49;19.40;74.80
64062;DHT22;50308;47.438;-1.528;2023-08-30T00:15:15;19.40;74.80
64062;DHT22;50308;47.438;-1.528;2023-08-30T00:17:40;19.40;74.80
64062;DHT22;50308;47.438;-1.528;2023-08-30T00:20:06;19.40;75.00
64062;DHT22;50308;47.438;-1.528;2023-08-30T00:22:32;19.30;74.90
64062;DHT22;50308;47.438;-1.528;2023-08-30T00:24:59;19.30;74.90
64062;DHT22;50308;47.438;-1.528;2023-08-30T00:27:25;19.30;75.00
64062;DHT22;50308;47.438;-1.528;2023-08-30T00:29:51;19.30;75.10
64062;DHT22;50308;47.438;-1.528;2023-08-30T00:32:16;19.30;75.10
64062;DHT22;50308;47.438;-1.528;2023-08-30T00:34:42;19.30;75.20
64062;DHT22;50308;47.438;-1.528;2023-08-30T00:37:08;19.20;75.20
64062;DHT22;50308;47.438;-1.528;2023-08-30T00:39:37;19.20;75.30
64062;DHT22;50308;47.438;-1.528;2023-08-30T00:42:03;19.20;75.30
64062;DHT22;50308;47.438;-1.528;2023-08-30T00:44:31;19.10;75.40
64062;DHT22;50308;47.438;-1.528;2023-08-30T00:46:58;19.10;75.40
64062;DHT22;50308;47.438;-1.528;2023-08-30T00:49:24;19.10;75.40
64062;DHT22;50308;47.438;-1.528;2023-08-30T00:51:50;19.10;75.40
64062;DHT22;50308;47.438;-1.528;2023-08-30T00:54:16;19.10;75.40
64062;DHT22;50308;47.438;-1.528;2023-08-30T00:56:42;19.00;75.50
64062;DHT22;50308;47.438;-1.528;2023-08-30T00:59:09;18.90;75.40
64062;DHT22;50308;47.438;-1.528;2023-08-30T01:01:34;18.90;75.60
64062;DHT22;50308;47.438;-1.528;2023-08-30T01:04:00;18.90;75.70
64062;DHT22;50308;47.438;-1.528;2023-08-30T01:06:26;18.90;75.60
64062;DHT22;50308;47.438;-1.528;2023-08-30T01:08:52;18.90;75.60
64062;DHT22;50308;47.438;-1.528;2023-08-30T01:11:26;18.80;75.70
64062;DHT22;50308;47.438;-1.528;2023-08-30T01:14:12;18.80;75.80
64062;DHT22;50308;47.438;-1.528;2023-08-30T01:16:39;18.80;76.00
64062;DHT22;50308;47.438;-1.528;2023-08-30T01:24:48;18.80;76.00
64062;DHT22;50308;47.438;-1.528;2023-08-30T01:27:17;18.80;76.20
64062;DHT22;50308;47.438;-1.528;2023-08-30T01:29:46;18.70;76.10
64062;DHT22;50308;47.438;-1.528;2023-08-30T01:32:12;18.70;76.20
64062;DHT22;50308;47.438;-1.528;2023-08-30T01:34:40;18.70;76.50
64062;DHT22;50308;47.438;-1.528;2023-08-30T01:37:07;18.80;76.50
64062;DHT22;50308;47.438;-1.528;2023-08-30T01:39:36;18.80;76.50
64062;DHT22;50308;47.438;-1.528;2023-08-30T01:42:03;18.80;76.40
64062;DHT22;50308;47.438;-1.528;2023-08-30T01:44:30;18.80;76.50
64062;DHT22;50308;47.438;-1.528;2023-08-30T01:47:00;18.80;76.50
64062;DHT22;50308;47.438;-1.528;2023-08-30T01:49:28;18.80;76.50
64062;DHT22;50308;47.438;-1.528;2023-08-30T01:51:54;18.80;76.50
64062;DHT22;50308;47.438;-1.528;2023-08-30T01:54:20;18.80;76.70
64062;DHT22;50308;47.438;-1.528;2023-08-30T01:56:46;18.90;76.80
64062;DHT22;50308;47.438;-1.528;2023-08-30T01:59:12;18.90;76.70
64062;DHT22;50308;47.438;-1.528;2023-08-30T02:01:38;18.90;76.70
64062;DHT22;50308;47.438;-1.528;2023-08-30T02:04:04;18.90;76.70
64062;DHT22;50308;47.438;-1.528;2023-08-30T02:06:49;18.90;76.70
64062;DHT22;50308;47.438;-1.528;2023-08-30T02:09:20;18.90;76.70
64062;DHT22;50308;47.438;-1.528;2023-08-30T02:11:48;18.90;76.90
64062;DHT22;50308;47.438;-1.528;2023-08-30T02:14:18;18.90;76.90
64062;DHT22;50308;47.438;-1.528;2023-08-30T02:16:46;18.90;77.00
64062;DHT22;50308;47.438;-1.528;2023-08-30T02:19:13;18.90;77.00
64062;DHT22;50308;47.438;-1.528;2023-08-30T02:21:42;18.90;76.90
64062;DHT22;50308;47.438;-1.528;2023-08-30T02:24:09;18.90;76.90
64062;DHT22;50308;47.438;-1.528;2023-08-30T02:26:34;18.90;76.90
64062;DHT22;50308;47.438;-1.528;2023-08-30T02:29:00;19.00;77.00
64062;DHT22;50308;47.438;-1.528;2023-08-30T02:31:25;19.00;77.10
64062;DHT22;50308;47.438;-1.528;2023-08-30T02:33:51;19.00;77.10
64062;DHT22;50308;47.438;-1.528;2023-08-30T02:36:17;19.00;77.10
64062;DHT22;50308;47.438;-1.528;2023-08-30T02:38:42;19.00;77.10
64062;DHT22;50308;47.438;-1.528;2023-08-30T02:41:08;19.00;77.10
64062;DHT22;50308;47.438;-1.528;2023-08-30T02:43:35;19.00;77.10
64062;DHT22;50308;47.438;-1.528;2023-08-30T02:46:01;19.00;77.10
64062;DHT22;50308;47.438;-1.528;2023-08-30T02:48:29;19.10;77.20
64062;DHT22;50308;47.438;-1.528;2023-08-30T02:50:54;19.00;77.20
64062;DHT22;50308;47.438;-1.528;2023-08-30T02:53:21;19.00;77.20
64062;DHT22;50308;47.438;-1.528;2023-08-30T02:55:49;19.10;77.30
64062;DHT22;50308;47.438;-1.528;2023-08-30T02:58:15;19.10;77.30
64062;DHT22;50308;47.438;-1.528;2023-08-30T03:00:41;19.10;77.20
64062;DHT22;50308;47.438;-1.528;2023-08-30T03:03:06;19.10;77.30
64062;DHT22;50308;47.438;-1.528;2023-08-30T03:05:32;19.10;77.30
64062;DHT22;50308;47.438;-1.528;2023-08-30T03:07:58;19.10;77.30
64062;DHT22;50308;47.438;-1.528;2023-08-30T03:10:24;19.10;77.30
64062;DHT22;50308;47.438;-1.528;2023-08-30T03:12:49;19.10;77.30
64062;DHT22;50308;47.438;-1.528;2023-08-30T03:15:15;19.10;77.40
64062;DHT22;50308;47.438;-1.528;2023-08-30T03:17:41;19.10;77.40
64062;DHT22;50308;47.438;-1.528;2023-08-30T03:20:07;19.20;77.40
64062;DHT22;50308;47.438;-1.528;2023-08-30T03:22:32;19.20;77.50
64062;DHT22;50308;47.438;-1.528;2023-08-30T03:24:58;19.20;77.30
64062;DHT22;50308;47.438;-1.528;2023-08-30T03:27:24;19.20;77.50
64062;DHT22;50308;47.438;-1.528;2023-08-30T03:29:50;19.20;77.50
64062;DHT22;50308;47.438;-1.528;2023-08-30T03:32:17;19.20;77.60
64062;DHT22;50308;47.438;-1.528;2023-08-30T03:34:46;19.20;77.60
64062;DHT22;50308;47.438;-1.528;2023-08-30T03:37:15;19.20;77.70
64062;DHT22;50308;47.438;-1.528;2023-08-30T03:39:41;19.20;77.70
64062;DHT22;50308;47.438;-1.528;2023-08-30T03:42:07;19.20;77.70
64062;DHT22;50308;47.438;-1.528;2023-08-30T03:44:33;19.20;77.70
64062;DHT22;50308;47.438;-1.528;2023-08-30T03:46:59;19.20;77.80
64062;DHT22;50308;47.438;-1.528;2023-08-30T03:49:24;19.30;77.80
64062;DHT22;50308;47.438;-1.528;2023-08-30T03:51:50;19.20;78.00
64062;DHT22;50308;47.438;-1.528;2023-08-30T03:54:16;19.20;78.20
64062;DHT22;50308;47.438;-1.528;2023-08-30T03:56:45;19.20;78.60
64062;DHT22;50308;47.438;-1.528;2023-08-30T03:59:13;19.20;79.00
64062;DHT22;50308;47.438;-1.528;2023-08-30T04:01:39;19.20;79.30
64062;DHT22;50308;47.438;-1.528;2023-08-30T04:04:05;19.20;79.40
64062;DHT22;50308;47.438;-1.528;2023-08-30T04:06:31;19.20;79.80
64062;DHT22;50308;47.438;-1.528;2023-08-30T04:08:57;19.20;80.00
64062;DHT22;50308;47.438;-1.528;2023-08-30T04:11:23;19.20;80.00
64062;DHT22;50308;47.438;-1.528;2023-08-30T04:13:49;19.20;80.00
64062;DHT22;50308;47.438;-1.528;2023-08-30T04:16:14;19.20;80.30
64062;DHT22;50308;47.438;-1.528;2023-08-30T04:18:40;19.20;80.40
64062;DHT22;50308;47.438;-1.528;2023-08-30T04:21:06;19.20;80.30
64062;DHT22;50308;47.438;-1.528;2023-08-30T04:23:34;19.20;80.60
64062;DHT22;50308;47.438;-1.528;2023-08-30T04:25:59;19.20;80.60
64062;DHT22;50308;47.438;-1.528;2023-08-30T04:28:25;19.20;80.70
64062;DHT22;50308;47.438;-1.528;2023-08-30T04:30:54;19.20;81.10
64062;DHT22;50308;47.438;-1.528;2023-08-30T04:33:20;19.20;81.10
64062;DHT22;50308;47.438;-1.528;2023-08-30T04:35:53;19.20;81.10
64062;DHT22;50308;47.438;-1.528;2023-08-30T04:38:19;19.20;81.00
64062;DHT22;50308;47.438;-1.528;2023-08-30T04:40:46;19.10;81.10
64062;DHT22;50308;47.438;-1.528;2023-08-30T04:43:12;19.10;81.20
64062;DHT22;50308;47.438;-1.528;2023-08-30T04:45:37;19.10;81.20
64062;DHT22;50308;47.438;-1.528;2023-08-30T04:48:04;19.10;81.10
64062;DHT22;50308;47.438;-1.528;2023-08-30T04:50:30;19.10;81.20
64062;DHT22;50308;47.438;-1.528;2023-08-30T04:52:56;19.10;81.40
64062;DHT22;50308;47.438;-1.528;2023-08-30T04:55:24;19.10;81.60
64062;DHT22;50308;47.438;-1.528;2023-08-30T04:57:50;19.10;81.60
64062;DHT22;50308;47.438;-1.528;2023-08-30T05:00:16;19.00;81.50
64062;DHT22;50308;47.438;-1.528;2023-08-30T05:02:42;19.10;81.60
64062;DHT22;50308;47.438;-1.528;2023-08-30T05:05:09;19.10;81.60
64062;DHT22;50308;47.438;-1.528;2023-08-30T05:07:35;19.00;81.50
64062;DHT22;50308;47.438;-1.528;2023-08-30T05:10:01;19.00;81.60
64062;DHT22;50308;47.438;-1.528;2023-08-30T05:12:28;19.10;81.50
64062;DHT22;50308;47.438;-1.528;2023-08-30T05:14:54;19.10;81.60
64062;DHT22;50308;47.438;-1.528;2023-08-30T05:17:19;19.00;81.70
64062;DHT22;50308;47.438;-1.528;2023-08-30T05:19:45;19.10;81.70
64062;DHT22;50308;47.438;-1.528;2023-08-30T05:22:11;19.10;81.50
64062;DHT22;50308;47.438;-1.528;2023-08-30T05:24:37;19.10;81.60
64062;DHT22;50308;47.438;-1.528;2023-08-30T05:27:02;19.10;81.30
64062;DHT22;50308;47.438;-1.528;2023-08-30T05:29:28;19.00;81.00
64062;DHT22;50308;47.438;-1.528;2023-08-30T05:31:54;19.00;81.00
64062;DHT22;50308;47.438;-1.528;2023-08-30T05:34:20;19.00;81.10
64062;DHT22;50308;47.438;-1.528;2023-08-30T05:36:45;19.00;80.50
64062;DHT22;50308;47.438;-1.528;2023-08-30T05:39:11;18.90;80.50
64062;DHT22;50308;47.438;-1.528;2023-08-30T05:41:37;18.90;80.50
64062;DHT22;50308;47.438;-1.528;2023-08-30T05:44:03;18.90;80.60
64062;DHT22;50308;47.438;-1.528;2023-08-30T05:46:28;18.90;80.50
64062;DHT22;50308;47.438;-1.528;2023-08-30T05:48:54;18.90;80.60
64062;DHT22;50308;47.438;-1.528;2023-08-30T05:51:20;18.90;80.70
64062;DHT22;50308;47.438;-1.528;2023-08-30T05:53:45;18.90;80.60
64062;DHT22;50308;47.438;-1.528;2023-08-30T05:56:11;18.90;80.90
64062;DHT22;50308;47.438;-1.528;2023-08-30T05:58:37;18.90;80.60
64062;DHT22;50308;47.438;-1.528;2023-08-30T06:01:04;18.90;80.50
64062;DHT22;50308;47.438;-1.528;2023-08-30T06:03:31;18.80;80.40
64062;DHT22;50308;47.438;-1.528;2023-08-30T06:05:57;18.80;80.90
64062;DHT22;50308;47.438;-1.528;2023-08-30T06:08:23;18.90;80.80
64062;DHT22;50308;47.438;-1.528;2023-08-30T06:10:49;18.80;80.40
64062;DHT22;50308;47.438;-1.528;2023-08-30T06:13:14;18.90;80.90
64062;DHT22;50308;47.438;-1.528;2023-08-30T06:15:41;18.90;81.60
64062;DHT22;50308;47.438;-1.528;2023-08-30T06:18:07;18.90;80.60
64062;DHT22;50308;47.438;-1.528;2023-08-30T06:20:32;18.90;80.50
64062;DHT22;50308;47.438;-1.528;2023-08-30T06:22:58;18.90;80.70
64062;DHT22;50308;47.438;-1.528;2023-08-30T06:25:24;18.90;80.80
64062;DHT22;50308;47.438;-1.528;2023-08-30T06:27:57;18.90;80.50
64062;DHT22;50308;47.438;-1.528;2023-08-30T06:30:25;18.90;81.00
64062;DHT22;50308;47.438;-1.528;2023-08-30T06:32:50;18.90;81.20
64062;DHT22;50308;47.438;-1.528;2023-08-30T06:35:16;18.90;80.90
64062;DHT22;50308;47.438;-1.528;2023-08-30T06:37:42;18.90;80.90
64062;DHT22;50308;47.438;-1.528;2023-08-30T06:40:08;18.90;81.00
64062;DHT22;50308;47.438;-1.528;2023-08-30T06:42:34;18.90;81.20
64062;DHT22;50308;47.438;-1.528;2023-08-30T06:45:01;18.90;80.90
64062;DHT22;50308;47.438;-1.528;2023-08-30T06:47:28;18.90;80.70
64062;DHT22;50308;47.438;-1.528;2023-08-30T06:49:53;18.90;81.10
64062;DHT22;50308;47.438;-1.528;2023-08-30T06:52:19;18.90;81.20
64062;DHT22;50308;47.438;-1.528;2023-08-30T06:54:45;18.90;81.10
64062;DHT22;50308;47.438;-1.528;2023-08-30T06:57:10;18.90;81.20
64062;DHT22;50308;47.438;-1.528;2023-08-30T06:59:36;18.90;81.10
64062;DHT22;50308;47.438;-1.528;2023-08-30T07:02:02;18.90;81.10
64062;DHT22;50308;47.438;-1.528;2023-08-30T07:04:28;18.90;81.50
64062;DHT22;50308;47.438;-1.528;2023-08-30T07:06:53;18.90;81.60
64062;DHT22;50308;47.438;-1.528;2023-08-30T07:09:19;18.90;81.80
64062;DHT22;50308;47.438;-1.528;2023-08-30T07:11:45;18.90;81.60
64062;DHT22;50308;47.438;-1.528;2023-08-30T07:14:11;18.90;81.60
64062;DHT22;50308;47.438;-1.528;2023-08-30T07:16:38;18.90;81.80
64062;DHT22;50308;47.438;-1.528;2023-08-30T07:19:04;18.90;81.90
64062;DHT22;50308;47.438;-1.528;2023-08-30T07:21:29;18.90;81.80
64062;DHT22;50308;47.438;-1.528;2023-08-30T07:23:55;18.90;82.00
64062;DHT22;50308;47.438;-1.528;2023-08-30T07:26:21;18.90;82.00
64062;DHT22;50308;47.438;-1.528;2023-08-30T07:28:46;19.00;82.00
64062;DHT22;50308;47.438;-1.528;2023-08-30T07:31:12;18.90;81.90
64062;DHT22;50308;47.438;-1.528;2023-08-30T07:33:40;19.00;82.10
64062;DHT22;50308;47.438;-1.528;2023-08-30T07:36:07;19.00;82.00
64062;DHT22;50308;47.438;-1.528;2023-08-30T07:38:33;19.00;82.00
64062;DHT22;50308;47.438;-1.528;2023-08-30T07:41:00;19.00;82.00
64062;DHT22;50308;47.438;-1.528;2023-08-30T07:43:26;19.00;82.10
64062;DHT22;50308;47.438;-1.528;2023-08-30T07:45:52;19.10;82.30
64062;DHT22;50308;47.438;-1.528;2023-08-30T07:48:17;19.00;82.10
64062;DHT22;50308;47.438;-1.528;2023-08-30T07:50:43;19.10;82.10
64062;DHT22;50308;47.438;-1.528;2023-08-30T07:53:09;19.10;81.80
64062;DHT22;50308;47.438;-1.528;2023-08-30T07:55:36;19.10;82.00
64062;DHT22;50308;47.438;-1.528;2023-08-30T07:58:02;19.10;81.50
64062;DHT22;50308;47.438;-1.528;2023-08-30T08:00:29;19.10;82.60
64062;DHT22;50308;47.438;-1.528;2023-08-30T08:02:54;19.10;81.70
64062;DHT22;50308;47.438;-1.528;2023-08-30T08:05:20;19.10;81.80
64062;DHT22;50308;47.438;-1.528;2023-08-30T08:07:51;19.20;81.90
64062;DHT22;50308;47.438;-1.528;2023-08-30T08:10:17;19.20;81.70
64062;DHT22;50308;47.438;-1.528;2023-08-30T08:12:43;19.20;81.70
64062;DHT22;50308;47.438;-1.528;2023-08-30T08:15:09;19.20;81.70
64062;DHT22;50308;47.438;-1.528;2023-08-30T08:17:35;19.20;81.70
64062;DHT22;50308;47.438;-1.528;2023-08-30T08:20:00;19.20;81.90
64062;DHT22;50308;47.438;-1.528;2023-08-30T08:22:26;19.20;81.70
64062;DHT22;50308;47.438;-1.528;2023-08-30T08:24:53;19.20;81.80
64062;DHT22;50308;47.438;-1.528;2023-08-30T08:27:19;19.30;81.20
64062;DHT22;50308;47.438;-1.528;2023-08-30T08:29:44;19.30;81.30
64062;DHT22;50308;47.438;-1.528;2023-08-30T08:32:10;19.30;80.90
64062;DHT22;50308;47.438;-1.528;2023-08-30T08:34:36;19.30;80.80
64062;DHT22;50308;47.438;-1.528;2023-08-30T08:37:01;19.30;80.90
64062;DHT22;50308;47.438;-1.528;2023-08-30T08:39:27;19.40;81.20
64062;DHT22;50308;47.438;-1.528;2023-08-30T08:41:53;19.40;81.20
64062;DHT22;50308;47.438;-1.528;2023-08-30T08:44:21;19.40;80.80
64062;DHT22;50308;47.438;-1.528;2023-08-30T08:46:48;19.40;80.80
64062;DHT22;50308;47.438;-1.528;2023-08-30T08:49:15;19.40;80.70
64062;DHT22;50308;47.438;-1.528;2023-08-30T08:51:43;19.40;80.80
64062;DHT22;50308;47.438;-1.528;2023-08-30T08:54:09;19.40;80.80
64062;DHT22;50308;47.438;-1.528;2023-08-30T08:56:36;19.40;80.50
64062;DHT22;50308;47.438;-1.528;2023-08-30T08:59:03;19.40;80.70
64062;DHT22;50308;47.438;-1.528;2023-08-30T09:01:28;19.40;80.60
64062;DHT22;50308;47.438;-1.528;2023-08-30T09:03:54;19.40;80.80
64062;DHT22;50308;47.438;-1.528;2023-08-30T09:06:21;19.50;80.50
64062;DHT22;50308;47.438;-1.528;2023-08-30T09:08:48;19.50;80.60
64062;DHT22;50308;47.438;-1.528;2023-08-30T09:11:13;19.50;80.30
64062;DHT22;50308;47.438;-1.528;2023-08-30T09:13:39;19.50;80.00
64062;DHT22;50308;47.438;-1.528;2023-08-30T09:16:14;19.50;80.30
64062;DHT22;50308;47.438;-1.528;2023-08-30T09:18:41;19.50;80.00
64062;DHT22;50308;47.438;-1.528;2023-08-30T09:21:08;19.50;80.00
64062;DHT22;50308;47.438;-1.528;2023-08-30T09:23:34;19.50;79.20
64062;DHT22;50308;47.438;-1.528;2023-08-30T09:26:00;19.50;80.50
64062;DHT22;50308;47.438;-1.528;2023-08-30T09:28:26;19.50;79.10
64062;DHT22;50308;47.438;-1.528;2023-08-30T09:30:57;19.60;79.10
64062;DHT22;50308;47.438;-1.528;2023-08-30T09:33:32;19.60;78.90
64062;DHT22;50308;47.438;-1.528;2023-08-30T09:35:58;19.60;79.00
64062;DHT22;50308;47.438;-1.528;2023-08-30T09:38:25;19.60;79.10
64062;DHT22;50308;47.438;-1.528;2023-08-30T09:40:51;19.70;79.40
64062;DHT22;50308;47.438;-1.528;2023-08-30T09:43:20;19.60;79.40
64062;DHT22;50308;47.438;-1.528;2023-08-30T09:45:50;19.60;79.60
64062;DHT22;50308;47.438;-1.528;2023-08-30T09:48:20;19.60;79.30
64062;DHT22;50308;47.438;-1.528;2023-08-30T09:50:52;19.60;79.20
64062;DHT22;50308;47.438;-1.528;2023-08-30T09:53:21;19.60;79.30
64062;DHT22;50308;47.438;-1.528;2023-08-30T09:55:48;19.60;79.10
64062;DHT22;50308;47.438;-1.528;2023-08-30T09:58:15;19.50;78.80
64062;DHT22;50308;47.438;-1.528;2023-08-30T10:00:41;19.60;79.00
64062;DHT22;50308;47.438;-1.528;2023-08-30T10:03:08;19.60;79.00
64062;DHT22;50308;47.438;-1.528;2023-08-30T10:05:35;19.60;79.00
64062;DHT22;50308;47.438;-1.528;2023-08-30T10:08:02;19.60;78.60
64062;DHT22;50308;47.438;-1.528;2023-08-30T10:10:30;19.60;78.70
64062;DHT22;50308;47.438;-1.528;2023-08-30T10:12:57;19.60;78.50
64062;DHT22;50308;47.438;-1.528;2023-08-30T10:15:23;19.60;78.00
64062;DHT22;50308;47.438;-1.528;2023-08-30T10:17:54;19.60;77.80
64062;DHT22;50308;47.438;-1.528;2023-08-30T10:20:20;19.60;77.60
64062;DHT22;50308;47.438;-1.528;2023-08-30T10:22:47;19.60;77.20
64062;DHT22;50308;47.438;-1.528;2023-08-30T10:25:21;19.60;77.40
64062;DHT22;50308;47.438;-1.528;2023-08-30T10:27:48;19.60;77.10
64062;DHT22;50308;47.438;-1.528;2023-08-30T10:30:15;19.60;76.60
64062;DHT22;50308;47.438;-1.528;2023-08-30T10:32:43;19.70;76.60
64062;DHT22;50308;47.438;-1.528;2023-08-30T10:35:17;19.70;76.40
64062;DHT22;50308;47.438;-1.528;2023-08-30T10:37:54;19.70;76.00
64062;DHT22;50308;47.438;-1.528;2023-08-30T10:40:20;19.70;75.60
64062;DHT22;50308;47.438;-1.528;2023-08-30T10:42:58;19.60;75.70
64062;DHT22;50308;47.438;-1.528;2023-08-30T10:45:24;19.70;74.40
64062;DHT22;50308;47.438;-1.528;2023-08-30T10:47:54;19.70;74.40
64062;DHT22;50308;47.438;-1.528;2023-08-30T10:50:26;19.70;74.30
64062;DHT22;50308;47.438;-1.528;2023-08-30T10:52:55;19.70;75.00
64062;DHT22;50308;47.438;-1.528;2023-08-30T10:55:23;19.70;74.80
64062;DHT22;50308;47.438;-1.528;2023-08-30T10:58:02;19.70;75.30
64062;DHT22;50308;47.438;-1.528;2023-08-30T11:00:29;19.70;75.00
64062;DHT22;50308;47.438;-1.528;2023-08-30T11:02:55;19.70;73.90
64062;DHT22;50308;47.438;-1.528;2023-08-30T11:05:23;19.80;74.10
64062;DHT22;50308;47.438;-1.528;2023-08-30T11:07:50;19.80;74.10
64062;DHT22;50308;47.438;-1.528;2023-08-30T11:10:17;19.80;73.90
64062;DHT22;50308;47.438;-1.528;2023-08-30T11:12:43;19.80;73.70
64062;DHT22;50308;47.438;-1.528;2023-08-30T11:15:10;19.80;73.80
64062;DHT22;50308;47.438;-1.528;2023-08-30T11:17:36;19.80;73.70
64062;DHT22;50308;47.438;-1.528;2023-08-30T11:22:43;19.90;73.60
64062;DHT22;50308;47.438;-1.528;2023-08-30T11:25:09;19.90;73.20
64062;DHT22;50308;47.438;-1.528;2023-08-30T11:27:36;19.90;74.00
64062;DHT22;50308;47.438;-1.528;2023-08-30T11:30:02;19.90;73.70
64062;DHT22;50308;47.438;-1.528;2023-08-30T11:32:34;19.90;73.90
64062;DHT22;50308;47.438;-1.528;2023-08-30T11:35:00;19.90;74.10
64062;DHT22;50308;47.438;-1.528;2023-08-30T11:37:27;19.90;73.20
64062;DHT22;50308;47.438;-1.528;2023-08-30T11:39:54;19.90;72.60
64062;DHT22;50308;47.438;-1.528;2023-08-30T11:42:21;19.90;72.70
64062;DHT22;50308;47.438;-1.528;2023-08-30T11:44:47;19.90;72.10
64062;DHT22;50308;47.438;-1.528;2023-08-30T11:47:23;19.90;72.70
64062;DHT22;50308;47.438;-1.528;2023-08-30T11:49:49;19.90;72.80
64062;DHT22;50308;47.438;-1.528;2023-08-30T11:52:16;19.90;72.70
64062;DHT22;50308;47.438;-1.528;2023-08-30T11:54:43;19.90;72.40
64062;DHT22;50308;47.438;-1.528;2023-08-30T11:57:09;20.00;72.10
64062;DHT22;50308;47.438;-1.528;2023-08-30T11:59:35;20.00;72.50
64062;DHT22;50308;47.438;-1.528;2023-08-30T12:02:04;20.00;72.10
64062;DHT22;50308;47.438;-1.528;2023-08-30T12:04:31;20.00;72.00
64062;DHT22;50308;47.438;-1.528;2023-08-30T12:06:56;20.00;72.10
64062;DHT22;50308;47.438;-1.528;2023-08-30T12:09:22;20.00;71.80
64062;DHT22;50308;47.438;-1.528;2023-08-30T12:11:51;20.10;72.10
64062;DHT22;50308;47.438;-1.528;2023-08-30T12:14:17;20.10;72.00
64062;DHT22;50308;47.438;-1.528;2023-08-30T12:16:43;20.10;71.10
64062;DHT22;50308;47.438;-1.528;2023-08-30T12:19:11;20.10;72.00
64062;DHT22;50308;47.438;-1.528;2023-08-30T12:21:42;20.10;71.60
64062;DHT22;50308;47.438;-1.528;2023-08-30T12:24:08;20.10;70.90
64062;DHT22;50308;47.438;-1.528;2023-08-30T12:26:34;20.10;71.20
64062;DHT22;50308;47.438;-1.528;2023-08-30T12:29:00;20.10;71.40
64062;DHT22;50308;47.438;-1.528;2023-08-30T12:31:25;20.10;70.70
64062;DHT22;50308;47.438;-1.528;2023-08-30T12:33:54;20.10;70.90
64062;DHT22;50308;47.438;-1.528;2023-08-30T12:36:20;20.10;70.90
64062;DHT22;50308;47.438;-1.528;2023-08-30T12:38:45;20.10;71.00
64062;DHT22;50308;47.438;-1.528;2023-08-30T12:41:12;20.20;70.90
64062;DHT22;50308;47.438;-1.528;2023-08-30T12:43:38;20.20;70.50
64062;DHT22;50308;47.438;-1.528;2023-08-30T12:46:03;20.20;70.10
64062;DHT22;50308;47.438;-1.528;2023-08-30T12:48:29;20.20;70.20
64062;DHT22;50308;47.438;-1.528;2023-08-30T12:50:55;20.20;69.90
64062;DHT22;50308;47.438;-1.528;2023-08-30T12:53:21;20.20;70.00
64062;DHT22;50308;47.438;-1.528;2023-08-30T12:55:47;20.20;69.40
64062;DHT22;50308;47.438;-1.528;2023-08-30T12:58:13;20.20;69.20
64062;DHT22;50308;47.438;-1.528;2023-08-30T13:00:39;20.20;69.30
64062;DHT22;50308;47.438;-1.528;2023-08-30T13:03:05;20.20;69.60
64062;DHT22;50308;47.438;-1.528;2023-08-30T13:05:32;20.20;69.20
64062;DHT22;50308;47.438;-1.528;2023-08-30T13:07:58;20.20;69.80
64062;DHT22;50308;47.438;-1.528;2023-08-30T13:10:24;20.20;69.00
64062;DHT22;50308;47.438;-1.528;2023-08-30T13:12:50;20.20;69.10
64062;DHT22;50308;47.438;-1.528;2023-08-30T13:15:15;20.30;68.80
64062;DHT22;50308;47.438;-1.528;2023-08-30T13:17:41;20.30;68.50
64062;DHT22;50308;47.438;-1.528;2023-08-30T13:20:07;20.30;68.80
64062;DHT22;50308;47.438;-1.528;2023-08-30T13:22:33;20.30;67.70
64062;DHT22;50308;47.438;-1.528;2023-08-30T13:24:59;20.30;67.50
64062;DHT22;50308;47.438;-1.528;2023-08-30T13:27:24;20.30;68.10
64062;DHT22;50308;47.438;-1.528;2023-08-30T13:29:50;20.30;67.90
64062;DHT22;50308;47.438;-1.528;2023-08-30T13:32:16;20.30;68.00
64062;DHT22;50308;47.438;-1.528;2023-08-30T13:34:41;20.30;67.80
64062;DHT22;50308;47.438;-1.528;2023-08-30T13:37:12;20.30;67.10
64062;DHT22;50308;47.438;-1.528;2023-08-30T13:39:40;20.30;67.50
64062;DHT22;50308;47.438;-1.528;2023-08-30T13:42:06;20.40;67.40
64062;DHT22;50308;47.438;-1.528;2023-08-30T13:44:32;20.30;67.50
64062;DHT22;50308;47.438;-1.528;2023-08-30T13:46:58;20.30;67.30
64062;DHT22;50308;47.438;-1.528;2023-08-30T13:49:24;20.40;67.50
64062;DHT22;50308;47.438;-1.528;2023-08-30T13:51:49;20.40;67.10
64062;DHT22;50308;47.438;-1.528;2023-08-30T13:54:15;20.40;67.40
64062;DHT22;50308;47.438;-1.528;2023-08-30T13:56:41;20.40;67.10
64062;DHT22;50308;47.438;-1.528;2023-08-30T13:59:07;20.40;67.10
64062;DHT22;50308;47.438;-1.528;2023-08-30T14:01:33;20.40;66.60
64062;DHT22;50308;47.438;-1.528;2023-08-30T14:04:00;20.40;66.50
64062;DHT22;50308;47.438;-1.528;2023-08-30T14:06:26;20.40;67.00
64062;DHT22;50308;47.438;-1.528;2023-08-30T14:08:51;20.40;66.80
64062;DHT22;50308;47.438;-1.528;2023-08-30T14:11:17;20.40;67.80
64062;DHT22;50308;47.438;-1.528;2023-08-30T14:13:43;20.40;67.10
64062;DHT22;50308;47.438;-1.528;2023-08-30T14:16:08;20.40;67.80
64062;DHT22;50308;47.438;-1.528;2023-08-30T14:18:35;20.40;67.40
64062;DHT22;50308;47.438;-1.528;2023-08-30T14:21:01;20.40;67.70
64062;DHT22;50308;47.438;-1.528;2023-08-30T14:23:28;20.40;67.80
64062;DHT22;50308;47.438;-1.528;2023-08-30T14:25:58;20.40;68.10
64062;DHT22;50308;47.438;-1.528;2023-08-30T14:28:25;20.40;67.90
64062;DHT22;50308;47.438;-1.528;2023-08-30T14:30:52;20.50;67.90
64062;DHT22;50308;47.438;-1.528;2023-08-30T14:33:17;20.50;68.00
64062;DHT22;50308;47.438;-1.528;2023-08-30T14:35:43;20.50;67.70
64062;DHT22;50308;47.438;-1.528;2023-08-30T14:38:09;20.50;67.70
64062;DHT22;50308;47.438;-1.528;2023-08-30T14:40:35;20.50;67.60
64062;DHT22;50308;47.438;-1.528;2023-08-30T14:43:05;20.50;67.40
64062;DHT22;50308;47.438;-1.528;2023-08-30T14:45:31;20.50;66.80
64062;DHT22;50308;47.438;-1.528;2023-08-30T14:47:57;20.60;66.60
64062;DHT22;50308;47.438;-1.528;2023-08-30T14:50:23;20.50;66.60
64062;DHT22;50308;47.438;-1.528;2023-08-30T14:52:49;20.50;66.80
64062;DHT22;50308;47.438;-1.528;2023-08-30T14:55:16;20.60;66.80
64062;DHT22;50308;47.438;-1.528;2023-08-30T14:57:41;20.60;67.10
64062;DHT22;50308;47.438;-1.528;2023-08-30T15:00:07;20.60;67.20
64062;DHT22;50308;47.438;-1.528;2023-08-30T15:02:33;20.60;66.90
64062;DHT22;50308;47.438;-1.528;2023-08-30T15:04:59;20.60;66.50
64062;DHT22;50308;47.438;-1.528;2023-08-30T15:07:25;20.60;67.20
64062;DHT22;50308;47.438;-1.528;2023-08-30T15:09:50;20.60;66.70
64062;DHT22;50308;47.438;-1.528;2023-08-30T15:12:16;20.60;66.70
64062;DHT22;50308;47.438;-1.528;2023-08-30T15:14:42;20.60;66.20
64062;DHT22;50308;47.438;-1.528;2023-08-30T15:17:13;20.60;66.70
64062;DHT22;50308;47.438;-1.528;2023-08-30T15:19:39;20.60;67.00